Aroma, Missouri
Current Conditions -  °F | °C
As of 6:55 AM on Friday 28 Nov 2014 (Local Time) from KHFJ Reporting Station
Clear Clear  
Wind Chill: 29°   Ceiling: Unl
Heat Index: 37°   Visibility: 10mi
Dew Point: 27°   Wind: 15mph
Humidity: 65%   Direction: 180°S
Pressure: 30.14"   Gusts: 18mph
Location:  36.8998°N, 94.263°W
Report Text: KHFJ 281255Z AUTO 18013G16KT 10SM CLR 03/M03 A3014 RMK AO2
Loading
Personal Weather Stations






























Interactive Weather Map New forecast layout! Learn more

10-Day Weather Forecast

Advertisements
Track Severe Weather on mobile